EW6756 Weather Reports


time (UTC)temp
C
wind
direction
speed
KPH
gust
KPH
rain 1hr
cm
rain 24hr
cm
rain mn
cm
humidity
%
barometer
mb
20260507130503 15 44 8.0 22.5 0.00 0.00 0.00 51 1016.3
20260507130003 15 39 8.0 22.5 0.00 0.00 0.00 52 1016.3
20260507125503 15 44 6.4 19.3 0.00 0.00 0.00 51 1016.1
20260507125003 15 55 6.4 19.3 0.00 0.00 0.00 51 1016.1
20260507124503 15 61 6.4 19.3 0.00 0.00 0.00 52 1016.0
20260507124217 15 56 6.4 19.3 0.00 0.00 0.00 53 1016.2
20260507123503 15 30 6.4 19.3 0.00 0.00 0.00 53 1016.3
20260507123003 15 40 4.8 22.5 0.00 0.00 0.00 52 1016.0
20260507122503 15 53 8.0 22.5 0.00 0.00 0.00 54 1016.2
20260507122003 14 38 8.0 22.5 0.00 0.00 0.00 53 1016.0
20260507121503 14 21 6.4 17.7 0.00 0.00 0.00 55 1016.1
20260507121003 14 29 6.4 19.3 0.00 0.00 0.00 54 1015.8
20260507120503 14 33 8.0 25.7 0.00 0.00 0.00 54 1016.0
20260507120004 14 49 9.7 25.7 0.00 0.00 0.00 54 1016.2
20260507115503 14 51 6.4 24.1 0.00 0.00 0.00 55 1016.0
20260507115003 14 35 4.8 24.1 0.00 0.00 0.00 55 1015.8
20260507114503 14 70 3.2 16.1 0.00 0.00 0.00 55 1016.0
20260507114003 14 78 6.4 19.3 0.00 0.00 0.00 55 1016.0
20260507113503 14 54 6.4 19.3 0.00 0.00 0.00 55 1016.0
20260507113003 14 49 6.4 19.3 0.00 0.00 0.00 56 1016.0
20260507112503 14 60 8.0 19.3 0.00 0.00 0.00 56 1016.1
20260507112003 14 45 9.7 25.7 0.00 0.00 0.00 56 1015.9
20260507111503 14 42 9.7 25.7 0.00 0.00 0.00 57 1016.2
20260507111003 13 45 8.0 25.7 0.00 0.00 0.00 56 1015.8
20260507110717 14 41 8.0 25.7 0.00 0.00 0.00 57 1016.0
20260507110218 14 37 9.7 22.5 0.00 0.00 0.00 57 1016.0
20260507105503 14 46 6.4 24.1 0.00 0.00 0.00 57 1016.1
20260507105003 13 53 6.4 30.6 0.00 0.00 0.00 57 1015.9
20260507104503 13 36 9.7 30.6 0.00 0.00 0.00 59 1016.0
20260507104003 13 39 9.7 30.6 0.00 0.00 0.00 59 1016.0
20260507103503 13 45 8.0 22.5 0.00 0.00 0.00 59 1016.2
20260507103003 13 41 8.0 22.5 0.00 0.00 0.00 59 1015.9
20260507102503 13 46 6.4 22.5 0.00 0.00 0.00 58 1016.0
20260507102003 13 59 8.0 30.6 0.00 0.00 0.00 59 1016.0
20260507101503 13 42 9.7 30.6 0.00 0.00 0.00 59 1016.1
20260507101003 13 35 8.0 22.5 0.00 0.00 0.00 60 1016.0
20260507100503 13 71 6.4 24.1 0.00 0.00 0.00 61 1016.0
20260507100003 13 74 6.4 24.1 0.00 0.00 0.00 61 1015.7
20260507095717 13 76 6.4 24.1 0.00 0.00 0.00 62 1015.8
20260507095003 13 35 9.7 30.6 0.00 0.00 0.00 62 1015.5
20260507094503 12 32 8.0 30.6 0.00 0.00 0.00 64 1015.7
20260507094003 12 63 4.8 16.1 0.00 0.00 0.00 64 1015.6
20260507093503 12 69 4.8 16.1 0.00 0.00 0.00 64 1015.8
20260507093217 12 74 6.4 16.1 0.00 0.00 0.00 64 1015.8
20260507092503 12 89 4.8 24.1 0.00 0.00 0.00 65 1015.8
20260507092003 12 64 8.0 35.4 0.00 0.00 0.00 66 1015.7
20260507091503 12 42 9.7 35.4 0.00 0.00 0.00 67 1015.5
20260507091003 12 44 6.4 19.3 0.00 0.00 0.00 67 1015.5
20260507090503 12 66 4.8 16.1 0.00 0.00 0.00 68 1015.5
20260507090004 12 52 6.4 22.5 0.00 0.00 0.00 69 1015.7
20260507085503 12 43 8.0 22.5 0.00 0.00 0.00 69 1015.3
20260507085003 12 37 8.0 22.5 0.00 0.00 0.00 68 1015.4
20260507084504 11 35 8.0 19.3 0.00 0.00 0.00 70 1015.3
20260507084003 11 57 6.4 19.3 0.00 0.00 0.00 70 1015.5
20260507083503 11 87 3.2 16.1 0.00 0.00 0.00 71 1015.2
20260507083003 11 65 6.4 29.0 0.00 0.00 0.00 71 1015.2
20260507082718 11 58 8.0 29.0 0.00 0.00 0.00 71 1015.3
20260507082003 11 55 8.0 22.5 0.00 0.00 0.00 72 1015.5
20260507081503 11 46 8.0 22.5 0.00 0.00 0.00 72 1015.3
20260507081003 11 37 8.0 24.1 0.00 0.00 0.00 73 1015.5
20260507080503 11 34 11.3 24.1 0.00 0.00 0.00 73 1015.2
20260507080003 11 32 8.0 19.3 0.00 0.00 0.00 74 1015.1
20260507075503 11 61 6.4 22.5 0.00 0.00 0.00 75 1015.3
20260507075003 10 51 8.0 25.7 0.00 0.00 0.00 75 1015.1
20260507074503 10 40 8.0 25.7 0.00 0.00 0.00 75 1015.1
20260507074003 10 31 8.0 22.5 0.00 0.00 0.00 76 1015.1
20260507073503 10 35 6.4 22.5 0.00 0.00 0.00 76 1015.2
20260507073003 10 55 6.4 22.5 0.00 0.00 0.00 76 1015.1
20260507072503 10 51 6.4 22.5 0.00 0.00 0.00 77 1015.0
20260507072217 10 49 8.0 22.5 0.00 0.00 0.00 77 1014.9
20260507071718 10 46 9.7 24.1 0.00 0.00 0.00 77 1015.0
20260507071003 10 30 6.4 24.1 0.00 0.00 0.00 78 1014.8
20260507070503 10 35 4.8 19.3 0.00 0.00 0.00 78 1015.1
20260507070005 9 57 4.8 12.9 0.00 0.00 0.00 79 1014.9
20260507065717 9 69 4.8 12.9 0.00 0.00 0.00 79 1014.9
20260507065003 9 85 4.8 12.9 0.00 0.00 0.00 79 1014.8
20260507064503 9 68 4.8 12.9 0.00 0.00 0.00 80 1014.8
20260507064003 9 64 3.2 11.3 0.00 0.00 0.00 80 1014.7
20260507063503 9 52 6.4 16.1 0.00 0.00 0.00 81 1014.8
20260507063003 8 40 6.4 17.7 0.00 0.00 0.00 82 1014.7
20260507062717 8 38 6.4 19.3 0.00 0.00 0.00 82 1014.6
20260507062218 8 52 4.8 19.3 0.00 0.00 0.00 82 1014.5
20260507061717 8 51 4.8 19.3 0.00 0.00 0.00 82 1014.5
20260507061003 8 42 6.4 16.1 0.00 0.00 0.00 83 1014.5
20260507060503 8 32 6.4 17.7 0.00 0.00 0.00 83 1014.5
20260507060003 8 32 6.4 17.7 0.00 0.00 0.00 84 1014.3
20260507055503 8 29 4.8 17.7 0.00 0.00 0.00 84 1014.5
20260507055003 8 26 3.2 17.7 0.00 0.00 0.00 84 1014.4
20260507054503 7 24 3.2 8.0 0.00 0.00 0.00 85 1014.3
20260507054003 7 31 3.2 11.3 0.00 0.00 0.00 85 1014.2
20260507053503 7 33 3.2 11.3 0.00 0.00 0.00 85 1014.2
20260507053218 7 36 3.2 11.3 0.00 0.00 0.00 85 1014.3
20260507052503 7 32 1.6 8.0 0.00 0.00 0.00 86 1014.2
20260507052003 7 28 3.2 6.4 0.00 0.00 0.00 86 1014.1
20260507051503 7 28 1.6 6.4 0.00 0.00 0.00 86 1014.0
20260507051003 7 29 1.6 6.4 0.00 0.00 0.00 86 1014.0
20260507050503 6 28 1.6 6.4 0.00 0.00 0.00 86 1014.1
20260507050218 6 22 1.6 6.4 0.00 0.00 0.00 87 1014.0
20260507045717 6 18 1.6 11.3 0.00 0.00 0.00 87 1013.9
20260507045003 6 22 3.2 11.3 0.00 0.00 0.00 87 1013.9
20260507044717 6 20 3.2 8.0 0.00 0.00 0.00 87 1013.9
20260507044218 6 16 3.2 8.0 0.00 0.00 0.00 87 1013.8
20260507043503 5 16 3.2 11.3 0.00 0.00 0.00 87 1013.5
20260507043217 5 19 3.2 11.3 0.00 0.00 0.00 86 1013.4
20260507042503 5 18 4.8 11.3 0.00 0.00 0.00 86 1013.6
20260507042003 5 17 3.2 11.3 0.00 0.00 0.00 86 1013.7
20260507041503 5 23 3.2 8.0 0.00 0.00 0.00 86 1013.4
20260507041003 5 22 3.2 8.0 0.00 0.00 0.00 85 1013.6
20260507040503 5 19 1.6 4.8 0.00 0.00 0.00 85 1013.4
20260507040217 5 23 1.6 4.8 0.00 0.00 0.00 85 1013.4
20260507035503 5 21 1.6 4.8 0.00 0.00 0.00 85 1013.5
20260507035003 5 24 0.0 11.3 0.00 0.00 0.00 85 1013.4
20260507034503 5 23 1.6 11.3 0.00 0.00 0.00 85 1013.2
20260507034217 5 22 1.6 11.3 0.00 0.00 0.00 85 1013.4
20260507033503 5 18 0.0 1.6 0.00 0.00 0.00 84 1013.3
20260507033003 5 23 0.0 4.8 0.00 0.00 0.00 84 1013.0
20260507032503 5 20 1.6 4.8 0.00 0.00 0.00 84 1013.2
20260507032003 5 19 1.6 4.8 0.00 0.00 0.00 83 1013.2
20260507031503 5 21 1.6 4.8 0.00 0.00 0.00 83 1013.2
20260507031217 5 24 0.0 4.8 0.00 0.00 0.00 83 1013.1
20260507030503 5 0 0.0 0.0 0.00 0.00 0.00 83 1013.1
20260507030003 5 23 0.0 1.6 0.00 0.00 0.00 83 1013.1
20260507025718 5 23 0.0 1.6 0.00 0.00 0.00 83 1013.0
20260507025217 5 24 0.0 1.6 0.00 0.00 0.00 83 1013.0
20260507024718 5 27 0.0 1.6 0.00 0.00 0.00 83 1012.9
20260507024003 5 25 0.0 1.6 0.00 0.00 0.00 84 1012.9
20260507023503 5 24 0.0 1.6 0.00 0.00 0.00 84 1012.9
20260507023003 5 19 0.0 4.8 0.00 0.00 0.00 83 1013.0
20260507022503 5 20 0.0 4.8 0.00 0.00 0.00 83 1012.8
20260507022003 6 22 0.0 4.8 0.00 0.00 0.00 83 1012.9
20260507021503 6 23 1.6 4.8 0.00 0.00 0.00 83 1012.7
20260507021003 6 26 1.6 6.4 0.00 0.00 0.00 83 1012.7
20260507020503 6 24 3.2 6.4 0.00 0.00 0.00 82 1012.7
20260507020217 6 24 3.2 6.4 0.00 0.00 0.00 82 1012.8
20260507015503 6 23 0.0 4.8 0.00 0.00 0.00 82 1012.7
20260507015003 6 27 0.0 4.8 0.00 0.00 0.00 82 1012.7
20260507014503 6 30 1.6 4.8 0.00 0.00 0.00 82 1012.6
20260507014217 6 31 0.0 4.8 0.00 0.00 0.00 82 1012.7
20260507013503 6 33 0.0 1.6 0.00 0.00 0.00 82 1012.5
20260507013003 6 33 1.6 8.0 0.00 0.00 0.00 81 1012.6
20260507012503 6 31 3.2 11.3 0.00 0.00 0.00 81 1012.1
20260507012003 6 26 4.8 11.3 0.00 0.00 0.00 81 1012.2
20260507011503 6 24 4.8 11.3 0.00 0.00 0.00 81 1012.1
20260507010503 6 31 4.8 12.9 0.00 0.00 0.00 81 1012.3
20260507010003 6 39 4.8 12.9 0.00 0.00 0.00 81 1012.2
20260507005503 6 36 4.8 12.9 0.00 0.00 0.00 81 1012.3
20260507005003 6 28 4.8 11.3 0.00 0.00 0.00 81 1012.3
20260507004503 6 28 4.8 11.3 0.00 0.00 0.00 81 1012.1
20260507004003 6 38 3.2 11.3 0.00 0.00 0.00 81 1012.2
20260507003503 7 38 3.2 11.3 0.00 0.00 0.00 81 1012.1
20260507003003 7 31 3.2 6.4 0.00 0.00 0.00 81 1012.0
20260507002503 7 25 3.2 11.3 0.00 0.00 0.00 80 1012.2
20260507002003 7 26 4.8 11.3 0.00 0.00 0.00 80 1012.1
20260507001503 7 26 4.8 11.3 0.00 0.00 0.00 80 1012.0
20260507001003 7 25 4.8 8.0 0.00 0.00 0.00 80 1012.3
20260507000717 7 25 4.8 11.3 0.00 0.00 0.00 80 1012.1
20260507000003 7 26 4.8 11.3 0.00 0.00 0.00 79 1011.9
20260506235503 7 28 3.2 11.3 0.00 0.00 0.00 79 1012.0
20260506235003 7 27 3.2 8.0 0.00 0.00 0.00 79 1012.0
20260506234503 7 23 3.2 8.0 0.00 0.00 0.00 79 1012.2
20260506234003 7 25 4.8 8.0 0.00 0.00 0.00 78 1012.0
20260506233503 7 34 4.8 11.3 0.00 0.00 0.00 78 1012.1
20260506233003 7 32 4.8 11.3 0.00 0.00 0.00 78 1012.0
20260506232503 8 22 4.8 11.3 0.00 0.00 0.00 78 1012.0
20260506232003 8 24 4.8 11.3 0.00 0.00 0.00 78 1012.0
20260506231503 8 34 4.8 11.3 0.00 0.00 0.00 78 1011.9
20260506231003 8 34 4.8 12.9 0.00 0.00 0.00 78 1012.0
20260506230503 8 29 3.2 12.9 0.00 0.00 0.00 78 1012.0
20260506230003 8 27 3.2 6.4 0.00 0.00 0.00 78 1012.0
20260506225503 8 20 4.8 12.9 0.00 0.00 0.00 77 1012.0
20260506225218 8 19 4.8 12.9 0.00 0.00 0.00 77 1012.0
20260506224503 8 33 6.4 12.9 0.00 0.00 0.00 77 1011.8
20260506224003 8 37 4.8 12.9 0.00 0.00 0.00 77 1011.6
20260506223503 8 29 3.2 11.3 0.00 0.00 0.00 77 1011.7
20260506223003 8 27 3.2 11.3 0.00 0.00 0.00 77 1011.7
20260506222503 8 31 4.8 12.9 0.00 0.00 0.00 76 1011.8
20260506222217 8 33 6.4 16.1 0.00 0.00 0.00 76 1011.7
20260506221504 8 32 8.0 16.1 0.00 0.00 0.00 76 1011.5
20260506221003 9 31 8.0 17.7 0.00 0.00 0.00 76 1011.6
20260506220503 9 29 6.4 17.7 0.00 0.00 0.00 76 1011.6
20260506220217 9 20 6.4 17.7 0.00 0.00 0.00 76 1011.5
20260506215503 9 31 8.0 17.7 0.00 0.00 0.00 75 1011.7
20260506215003 9 35 8.0 17.7 0.00 0.00 0.00 75 1011.8
20260506214503 9 32 6.4 16.1 0.00 0.00 0.00 75 1011.5
20260506214003 9 31 6.4 12.9 0.00 0.00 0.00 75 1011.4
20260506213503 9 28 6.4 12.9 0.00 0.00 0.00 74 1011.5
20260506213003 9 28 8.0 17.7 0.00 0.00 0.00 74 1011.3
20260506212503 9 27 8.0 17.7 0.00 0.00 0.00 74 1011.3
20260506212003 9 31 8.0 12.9 0.00 0.00 0.00 73 1011.4
20260506211503 10 33 6.4 12.9 0.00 0.00 0.00 73 1011.2
20260506211003 10 32 6.4 16.1 0.00 0.00 0.00 73 1011.2
20260506210503 10 26 6.4 19.3 0.00 0.00 0.00 72 1011.2
20260506210003 10 24 8.0 19.3 0.00 0.00 0.00 72 1011.3
20260506205503 10 32 6.4 19.3 0.00 0.00 0.00 71 1011.3
20260506205003 10 35 6.4 12.9 0.00 0.00 0.00 71 1011.1
20260506204503 9 34 4.8 12.9 0.00 0.00 0.00 71 1011.2
20260506204003 10 30 4.8 11.3 0.00 0.00 0.00 70 1011.0
20260506203718 10 28 4.8 11.3 0.00 0.00 0.00 70 1011.0
20260506203003 10 21 4.8 11.3 0.00 0.00 0.00 69 1011.1
20260506202503 10 24 4.8 8.0 0.00 0.00 0.00 69 1011.0
20260506202216 10 23 3.2 8.0 0.00 0.00 0.00 68 1011.0
20260506201503 10 28 3.2 6.4 0.00 0.00 0.00 68 1011.3
20260506201003 10 29 3.2 6.4 0.00 0.00 0.00 67 1010.9
20260506200717 10 32 3.2 6.4 0.00 0.00 0.00 67 1010.9
20260506200003 11 39 3.2 11.3 0.00 0.00 0.00 67 1010.9
20260506195717 11 37 4.8 12.9 0.00 0.00 0.00 66 1011.0
20260506195003 11 28 6.4 12.9 0.00 0.00 0.00 66 1010.9
20260506194503 11 23 4.8 12.9 0.00 0.00 0.00 66 1010.6
20260506194218 11 28 4.8 12.9 0.00 0.00 0.00 66 1010.8
20260506193504 11 31 4.8 12.9 0.00 0.00 0.00 66 1010.6
20260506193003 11 31 6.4 19.3 0.00 0.00 0.00 66 1010.5
20260506192503 11 29 6.4 19.3 0.00 0.00 0.00 66 1010.5
20260506192003 11 23 6.4 16.1 0.00 0.00 0.00 66 1010.6
20260506191503 11 25 6.4 16.1 0.00 0.00 0.00 65 1010.4
20260506191003 11 29 8.0 16.1 0.00 0.00 0.00 65 1010.2
20260506190717 11 28 8.0 16.1 0.00 0.00 0.00 65 1010.4
20260506190007 12 30 6.4 12.9 0.00 0.00 0.00 64 1010.3
20260506185503 12 18 6.4 12.9 0.00 0.00 0.00 64 1010.1
20260506185003 12 26 6.4 19.3 0.00 0.00 0.00 63 1010.1
20260506184717 12 27 6.4 19.3 0.00 0.00 0.00 63 1010.0
20260506184003 12 29 4.8 16.1 0.00 0.00 0.00 62 1010.0
20260506183503 12 28 4.8 16.1 0.00 0.00 0.00 61 1009.8
20260506183003 12 34 3.2 11.3 0.00 0.00 0.00 60 1009.7
20260506182503 12 47 4.8 11.3 0.00 0.00 0.00 60 1009.9
20260506182218 12 43 4.8 11.3 0.00 0.00 0.00 59 1009.8
20260506181503 12 34 6.4 12.9 0.00 0.00 0.00 58 1009.7
20260506181003 12 42 6.4 16.1 0.00 0.00 0.00 58 1009.8
20260506180503 12 38 6.4 16.1 0.00 0.00 0.00 57 1009.8
20260506180004 12 36 6.4 16.1 0.00 0.00 0.00 57 1009.7
20260506175503 13 41 6.4 17.7 0.00 0.00 0.00 57 1009.5
20260506175003 13 37 8.0 17.7 0.00 0.00 0.00 56 1009.6
20260506174503 13 35 6.4 16.1 0.00 0.00 0.00 56 1009.6
20260506174003 13 24 4.8 12.9 0.00 0.00 0.00 56 1009.5
20260506173716 13 18 4.8 12.9 0.00 0.00 0.00 56 1009.3
20260506173218 13 28 4.8 12.9 0.00 0.00 0.00 56 1009.3
20260506172503 13 34 6.4 16.1 0.00 0.00 0.00 55 1009.4
20260506172217 13 33 6.4 16.1 0.00 0.00 0.00 55 1009.4
20260506171503 13 41 6.4 16.1 0.00 0.00 0.00 55 1009.4
20260506171003 13 33 8.0 17.7 0.00 0.00 0.00 55 1009.4
20260506170503 13 20 8.0 17.7 0.00 0.00 0.00 54 1009.3
20260506170003 13 21 8.0 17.7 0.00 0.00 0.00 54 1009.3
20260506165503 13 36 8.0 19.3 0.00 0.00 0.00 53 1009.2
20260506165003 13 39 6.4 19.3 0.00 0.00 0.00 53 1009.3
20260506164503 13 34 6.4 22.5 0.00 0.00 0.00 52 1009.2
20260506164003 13 41 8.0 22.5 0.00 0.00 0.00 52 1009.3
20260506163503 13 43 8.0 17.7 0.00 0.00 0.00 51 1009.3
20260506163003 13 35 8.0 17.7 0.00 0.00 0.00 51 1009.1
20260506162503 13 35 8.0 17.7 0.00 0.00 0.00 50 1009.0
20260506162003 13 42 9.7 22.5 0.00 0.00 0.00 49 1009.2
20260506161718 13 39 9.7 22.5 0.00 0.00 0.00 50 1009.3
20260506161003 13 19 9.7 24.1 0.00 0.00 0.00 49 1009.2
20260506160718 13 26 11.3 24.1 0.00 0.00 0.00 48 1009.2
20260506160003 14 47 9.7 24.1 0.00 0.00 0.00 48 1009.1
20260506155503 14 44 9.7 22.5 0.00 0.00 0.00 48 1009.2
20260506155003 14 32 9.7 22.5 0.00 0.00 0.00 48 1009.3
20260506154503 14 26 9.7 22.5 0.00 0.00 0.00 47 1009.3
20260506154003 14 30 9.7 24.1 0.00 0.00 0.00 47 1009.3
20260506153503 14 30 11.3 24.1 0.00 0.00 0.00 46 1009.2
20260506153217 14 33 11.3 24.1 0.00 0.00 0.00 46 1009.1
20260506152718 14 38 9.7 24.1 0.00 0.00 0.00 46 1009.5
20260506152217 14 37 11.3 24.1 0.00 0.00 0.00 47 1009.4
20260506151503 15 38 11.3 29.0 0.00 0.00 0.00 46 1009.2
20260506151216 15 42 11.3 29.0 0.00 0.00 0.00 46 1009.3
20260506150503 15 44 8.0 29.0 0.00 0.00 0.00 45 1009.3
20260506150003 15 33 6.4 17.7 0.00 0.00 0.00 44 1009.4
20260506145503 15 41 8.0 17.7 0.00 0.00 0.00 43 1009.1
20260506145216 15 35 9.7 24.1 0.00 0.00 0.00 43 1009.3
20260506144717 15 30 9.7 24.1 0.00 0.00 0.00 44 1009.3
20260506144216 15 38 11.3 24.1 0.00 0.00 0.00 45 1009.3
20260506143503 15 45 11.3 24.1 0.00 0.00 0.00 44 1009.3
20260506143003 15 43 11.3 24.1 0.00 0.00 0.00 45 1009.2
20260506142503 15 41 9.7 24.1 0.00 0.00 0.00 45 1009.3
20260506142003 15 44 9.7 25.7 0.00 0.00 0.00 44 1009.1
20260506141717 15 42 9.7 30.6 0.00 0.00 0.00 45 1009.3
20260506141003 15 35 11.3 30.6 0.00 0.00 0.00 46 1009.3
20260506140503 15 43 9.7 33.8 0.00 0.00 0.00 47 1009.2
20260506140003 15 44 11.3 33.8 0.00 0.00 0.00 47 1009.3
20260506135503 15 36 11.3 33.8 0.00 0.00 0.00 46 1009.1
20260506135003 15 28 8.0 19.3 0.00 0.00 0.00 47 1009.3
20260506134503 15 38 9.7 33.8 0.00 0.00 0.00 46 1009.1
20260506134218 15 37 12.9 33.8 0.00 0.00 0.00 45 1009.2
20260506133503 15 38 12.9 33.8 0.00 0.00 0.00 46 1009.3
20260506133003 15 36 12.9 29.0 0.00 0.00 0.00 47 1009.0
20260506132717 15 42 12.9 29.0 0.00 0.00 0.00 46 1009.1
20260506132003 15 53 12.9 29.0 0.00 0.00 0.00 48 1009.1
20260506131503 15 37 11.3 25.7 0.00 0.00 0.00 48 1008.9
20260506131003 15 22 9.7 25.7 0.00 0.00 0.00 47 1009.0